Illinois City, Illinois
Current Conditions -  °F | °C
As of 12:15 PM on Friday 28 Nov 2014 (Local Time) from KMUT Reporting Station
Clear Clear  
Wind Chill: 24°   Ceiling: Unl
Heat Index: 32°   Visibility: 10mi
Dew Point: 23°   Wind: 10mph
Humidity: 69%   Direction: 160°SSE
Pressure: 29.97"   Gusts: NA
Location:  41.4°N, 90.9°W
Report Text: KMUT 281815Z AUTO 16009KT 10SM CLR M00/M05 A2997 RMK AO2
Loading
Personal Weather Stations






























Interactive Weather Map New forecast layout! Learn more

10-Day Weather Forecast

Advertisements
Track Severe Weather on mobile